createdAt,value
2023-02-13T00:20:47.373Z,20.3
2023-02-13T00:50:52.274Z,20.5
2023-02-13T01:20:47.954Z,21.9
2023-02-13T01:50:55.747Z,21
2023-02-13T02:21:08.005Z,21.7
2023-02-13T02:50:54.144Z,23.4
2023-02-13T03:21:05.069Z,23
2023-02-13T03:50:49.092Z,27.4
2023-02-13T04:20:49.606Z,28
2023-02-13T04:50:49.454Z,31.2
2023-02-13T05:21:00.277Z,31.3
2023-02-13T05:50:51.235Z,27.9
2023-02-13T06:20:54.461Z,31.8
2023-02-13T06:50:51.905Z,25.6
2023-02-13T07:20:50.488Z,27.4
2023-02-13T07:50:53.067Z,27.5
2023-02-13T08:20:53.671Z,23
2023-02-13T08:50:51.462Z,26
2023-02-13T09:20:51.845Z,23.8
2023-02-13T09:50:54.821Z,25.9
2023-02-13T10:20:56.121Z,24.7
2023-02-13T10:51:00.113Z,25.6
2023-02-13T11:21:06.479Z,28.4
2023-02-13T11:50:59.889Z,27.1
2023-02-13T12:21:01.300Z,25.7
2023-02-13T12:51:06.159Z,28.5
2023-02-13T13:21:11.616Z,27.9
2023-02-13T13:51:00.658Z,26.8
2023-02-13T14:21:05.060Z,26.1
2023-02-13T14:51:03.612Z,26
2023-02-13T15:21:07.630Z,24.7
2023-02-13T15:51:06.280Z,23.7
2023-02-13T16:21:09.998Z,23.4
2023-02-13T16:51:08.359Z,26.6
2023-02-13T17:21:09.616Z,23.9
2023-02-13T17:51:09.994Z,25.6
2023-02-13T18:21:12.609Z,23.8
2023-02-13T18:51:11.725Z,24.3
2023-02-13T19:21:12.307Z,24.6
2023-02-13T19:51:15.137Z,26.1
2023-02-13T20:21:16.249Z,25.1
2023-02-13T20:51:17.163Z,26.5
2023-02-13T21:21:18.221Z,25.6
2023-02-13T21:51:14.989Z,27.9
2023-02-13T22:21:19.056Z,28.3
2023-02-13T22:51:14.851Z,28.2
2023-02-13T23:21:14.753Z,30.2
2023-02-13T23:51:20.995Z,27.7
